createdAt,value
2024-02-09T00:00:33.522Z,30.00
2024-02-09T00:03:01.953Z,29.50
2024-02-09T00:05:33.260Z,29.50
2024-02-09T00:08:06.168Z,30.75
2024-02-09T00:10:38.469Z,26.25
2024-02-09T00:13:06.981Z,30.00
2024-02-09T00:15:34.898Z,32.50
2024-02-09T00:18:04.898Z,29.00
2024-02-09T00:20:32.595Z,31.00
2024-02-09T00:22:59.961Z,32.75
2024-02-09T00:25:27.973Z,31.25
2024-02-09T00:27:55.670Z,29.50
2024-02-09T00:30:23.267Z,32.75
2024-02-09T00:32:52.800Z,30.50
2024-02-09T00:35:21.669Z,31.75
2024-02-09T00:37:49.770Z,32.00
2024-02-09T00:40:17.005Z,31.00
2024-02-09T00:42:44.442Z,30.50
2024-02-09T00:45:14.241Z,31.50
2024-02-09T00:47:41.327Z,29.75
2024-02-09T00:50:11.551Z,30.75
2024-02-09T00:52:38.729Z,32.00
2024-02-09T00:55:06.566Z,26.50
2024-02-09T00:57:33.702Z,29.25
2024-02-09T01:00:01.230Z,26.00
2024-02-09T01:02:30.808Z,26.00
2024-02-09T01:04:58.267Z,25.25
2024-02-09T01:07:26.502Z,23.75
2024-02-09T01:09:53.632Z,24.75
2024-02-09T01:12:39.339Z,24.25
2024-02-09T01:15:25.266Z,24.25
2024-02-09T01:18:11.134Z,23.75
2024-02-09T01:20:56.734Z,24.25
2024-02-09T01:23:42.407Z,19.00
2024-02-09T01:26:28.044Z,22.75
2024-02-09T01:29:14.366Z,24.00
2024-02-09T01:31:59.692Z,17.75
2024-02-09T01:34:45.484Z,23.50
2024-02-09T01:37:31.505Z,23.00
2024-02-09T01:40:17.066Z,27.00
2024-02-09T01:43:03.017Z,24.75
2024-02-09T01:45:48.858Z,23.75
2024-02-09T01:48:34.856Z,26.00
2024-02-09T01:51:20.399Z,7.25
2024-02-09T01:54:07.409Z,24.00
2024-02-09T01:56:52.887Z,23.75
2024-02-09T01:59:38.654Z,19.75
2024-02-09T02:02:24.196Z,23.25
2024-02-09T02:05:10.129Z,19.00
2024-02-09T02:07:57.278Z,23.75
2024-02-09T02:10:42.723Z,19.75
2024-02-09T02:13:28.206Z,14.50
2024-02-09T02:16:18.192Z,18.50
2024-02-09T02:19:04.610Z,21.25
2024-02-09T02:21:56.534Z,18.00
2024-02-09T02:24:45.573Z,8.75
2024-02-09T02:27:31.953Z,17.00
2024-02-09T02:30:17.613Z,18.75
2024-02-09T02:33:03.378Z,13.00
2024-02-09T02:35:48.889Z,15.25
2024-02-09T02:38:34.512Z,13.50
2024-02-09T02:41:19.628Z,15.25
2024-02-09T02:43:46.958Z,11.00
2024-02-09T02:46:17.209Z,13.50
2024-02-09T02:49:07.081Z,14.25
2024-02-09T02:51:53.048Z,13.50
2024-02-09T02:54:38.925Z,14.25
2024-02-09T02:57:25.286Z,13.75
2024-02-09T03:00:12.723Z,10.50
2024-02-09T03:02:59.704Z,13.50
2024-02-09T03:05:29.645Z,13.00
2024-02-09T03:10:28.257Z,13.50
2024-02-09T03:12:55.341Z,16.25
2024-02-09T03:15:25.233Z,3.50
2024-02-09T03:17:55.657Z,18.00
2024-02-09T03:20:26.305Z,15.00
2024-02-09T03:22:53.448Z,9.75
2024-02-09T03:25:22.589Z,13.75
2024-02-09T03:27:51.408Z,12.25
2024-02-09T03:30:19.299Z,11.25
2024-02-09T03:32:47.369Z,11.50
2024-02-09T03:35:14.687Z,11.00
2024-02-09T03:37:45.979Z,8.50
2024-02-09T03:40:14.073Z,10.75
2024-02-09T03:42:42.774Z,9.50
2024-02-09T03:45:09.976Z,10.50
2024-02-09T03:47:38.763Z,9.25
2024-02-09T03:50:06.368Z,10.00
2024-02-09T03:52:33.915Z,10.50
2024-02-09T03:55:01.008Z,6.75
2024-02-09T03:57:30.055Z,14.00
2024-02-09T03:59:57.488Z,12.25
2024-02-09T04:02:24.665Z,8.75
2024-02-09T04:04:51.908Z,11.50
2024-02-09T04:07:22.691Z,10.50
2024-02-09T04:10:14.367Z,9.50
2024-02-09T04:12:38.013Z,9.00
2024-02-09T04:15:06.004Z,10.00
2024-02-09T04:17:33.296Z,9.00
2024-02-09T04:20:00.419Z,9.50
2024-02-09T04:22:29.072Z,8.50
2024-02-09T04:24:58.371Z,2.00
2024-02-09T04:27:25.537Z,9.50
2024-02-09T04:29:53.408Z,9.75
2024-02-09T04:32:20.296Z,10.00
2024-02-09T04:34:47.567Z,8.75
2024-02-09T04:37:14.669Z,8.50
2024-02-09T04:39:44.855Z,7.75
2024-02-09T04:42:12.190Z,9.75
2024-02-09T04:44:39.812Z,9.50
2024-02-09T04:47:06.877Z,11.00
2024-02-09T04:49:34.093Z,8.50
2024-02-09T04:52:01.794Z,9.00
2024-02-09T04:54:29.064Z,6.50
2024-02-09T04:56:57.566Z,10.00
2024-02-09T04:59:31.989Z,11.00
2024-02-09T05:01:59.432Z,13.75
2024-02-09T05:04:26.628Z,12.25
2024-02-09T05:06:53.902Z,13.00
2024-02-09T05:09:25.138Z,12.00
2024-02-09T05:11:52.103Z,8.25
2024-02-09T05:14:21.226Z,9.00
2024-02-09T05:16:48.425Z,10.00
2024-02-09T05:19:15.564Z,9.00
2024-02-09T05:21:43.186Z,6.25
2024-02-09T05:24:10.265Z,7.00
2024-02-09T05:26:37.419Z,6.00
2024-02-09T05:29:04.620Z,5.00
2024-02-09T05:31:32.122Z,6.50
2024-02-09T05:33:59.776Z,11.00
2024-02-09T05:36:28.912Z,6.00
2024-02-09T05:39:02.105Z,6.50
2024-02-09T05:41:31.706Z,7.75
2024-02-09T05:43:59.686Z,8.75
2024-02-09T05:46:27.391Z,8.00
2024-02-09T05:48:57.465Z,11.50
2024-02-09T05:51:25.591Z,10.50
2024-02-09T05:53:53.282Z,8.00
2024-02-09T05:56:22.577Z,9.75
2024-02-09T05:58:51.104Z,6.50
2024-02-09T06:01:18.960Z,10.75
2024-02-09T06:03:46.082Z,9.50
2024-02-09T06:06:13.987Z,27.00
2024-02-09T06:08:41.111Z,6.75
2024-02-09T06:11:08.185Z,11.00
2024-02-09T06:13:35.636Z,10.50
2024-02-09T06:16:02.834Z,8.50
2024-02-09T06:18:30.449Z,14.00
2024-02-09T06:20:59.786Z,28.00
2024-02-09T06:23:26.813Z,24.25
2024-02-09T06:25:54.080Z,21.50
2024-02-09T06:28:21.119Z,13.50
2024-02-09T06:30:49.104Z,16.50
2024-02-09T06:33:17.615Z,15.50
2024-02-09T06:35:45.026Z,8.50
2024-02-09T06:38:15.197Z,14.75
2024-02-09T06:40:42.280Z,10.00
2024-02-09T06:43:09.291Z,8.75
2024-02-09T06:45:36.773Z,9.25
2024-02-09T06:48:07.706Z,9.25
2024-02-09T06:50:36.205Z,10.75
2024-02-09T06:53:07.657Z,11.75
2024-02-09T06:55:37.873Z,15.50
2024-02-09T06:58:05.600Z,14.25
2024-02-09T07:00:36.917Z,14.25
2024-02-09T07:03:04.733Z,8.00
2024-02-09T07:05:31.994Z,6.75
2024-02-09T07:07:59.537Z,7.75
2024-02-09T07:10:26.769Z,7.50
2024-02-09T07:12:55.539Z,11.00
2024-02-09T07:15:22.847Z,12.75
2024-02-09T07:17:51.488Z,11.25
2024-02-09T07:20:19.331Z,13.50
2024-02-09T07:22:47.469Z,11.75
2024-02-09T07:25:14.595Z,11.25
2024-02-09T07:27:41.659Z,9.00
2024-02-09T07:30:09.575Z,11.50
2024-02-09T07:32:37.168Z,12.00
2024-02-09T07:35:05.921Z,10.50
2024-02-09T07:37:33.211Z,9.50
2024-02-09T07:40:03.760Z,11.00
2024-02-09T07:42:31.282Z,13.00
2024-02-09T07:45:00.691Z,12.00
2024-02-09T07:47:30.238Z,13.50
2024-02-09T07:49:57.490Z,11.50
2024-02-09T07:52:29.680Z,14.00
2024-02-09T07:54:58.118Z,16.50
2024-02-09T07:57:27.208Z,15.00
2024-02-09T07:59:54.488Z,29.25
2024-02-09T08:02:21.827Z,15.50
2024-02-09T08:04:49.918Z,14.75
2024-02-09T08:07:21.998Z,14.50
2024-02-09T08:09:49.161Z,12.00
2024-02-09T08:12:19.462Z,13.00
2024-02-09T08:14:48.188Z,20.00
2024-02-09T08:17:19.474Z,11.50
2024-02-09T08:19:46.551Z,17.50
2024-02-09T08:22:13.928Z,18.00
2024-02-09T08:24:41.064Z,15.50
2024-02-09T08:27:09.176Z,17.25
2024-02-09T08:29:37.673Z,18.25
2024-02-09T08:32:07.576Z,18.00
2024-02-09T08:34:34.974Z,14.50
2024-02-09T08:37:02.053Z,17.50
2024-02-09T08:39:29.762Z,18.25
2024-02-09T08:41:56.732Z,23.00
2024-02-09T08:44:23.700Z,23.00
2024-02-09T08:46:51.636Z,19.50
2024-02-09T08:49:19.325Z,21.75
2024-02-09T08:51:46.534Z,22.00
2024-02-09T08:54:15.688Z,22.75
2024-02-09T08:56:43.088Z,18.50
2024-02-09T08:59:12.053Z,20.75
2024-02-09T09:01:40.858Z,18.00
2024-02-09T09:04:08.414Z,12.00
2024-02-09T09:06:35.691Z,20.75
2024-02-09T09:09:02.803Z,24.00
2024-02-09T09:11:30.038Z,16.00
2024-02-09T09:13:57.194Z,13.75
2024-02-09T09:16:24.286Z,13.00
2024-02-09T09:18:51.983Z,15.00
2024-02-09T09:21:19.919Z,14.50
2024-02-09T09:23:46.867Z,12.75
2024-02-09T09:26:22.410Z,19.00
2024-02-09T09:28:55.843Z,14.00
2024-02-09T09:31:23.025Z,15.25
2024-02-09T09:33:50.071Z,15.00
2024-02-09T09:36:17.194Z,16.50
2024-02-09T09:38:46.462Z,18.75
2024-02-09T09:41:14.116Z,21.50
2024-02-09T09:43:41.661Z,13.00
2024-02-09T09:46:13.262Z,14.75
2024-02-09T09:48:40.974Z,18.00
2024-02-09T09:51:09.332Z,18.25
2024-02-09T09:53:40.818Z,14.50
2024-02-09T09:56:08.688Z,17.25
2024-02-09T09:58:36.907Z,13.75
2024-02-09T10:01:12.162Z,16.00
2024-02-09T10:03:40.485Z,14.00
2024-02-09T10:06:08.043Z,16.00
2024-02-09T10:08:40.042Z,13.75
2024-02-09T10:11:07.990Z,13.25
2024-02-09T10:13:36.761Z,11.50
2024-02-09T10:16:05.093Z,13.75
2024-02-09T10:18:37.385Z,9.00
2024-02-09T10:21:09.511Z,13.00
2024-02-09T10:23:37.708Z,12.75
2024-02-09T10:26:06.980Z,8.75
2024-02-09T10:28:37.227Z,11.25
2024-02-09T10:31:05.477Z,9.50
2024-02-09T10:33:32.941Z,8.75
2024-02-09T10:36:03.385Z,5.25
2024-02-09T10:38:32.565Z,9.50
2024-02-09T10:41:03.564Z,2.25
2024-02-09T10:43:36.321Z,7.25
2024-02-09T10:46:06.153Z,0.25
2024-02-09T10:48:38.950Z,9.50
2024-02-09T10:51:10.396Z,5.00
2024-02-09T10:53:50.836Z,9.00
2024-02-09T10:56:20.428Z,11.00
2024-02-09T10:58:48.667Z,15.50
2024-02-09T11:01:15.969Z,10.75
2024-02-09T11:03:43.448Z,8.25
2024-02-09T11:08:39.337Z,12.25
2024-02-09T11:11:06.478Z,12.00
2024-02-09T11:13:34.613Z,11.00
2024-02-09T11:16:03.269Z,14.50
2024-02-09T11:18:35.578Z,14.25
2024-02-09T11:21:07.156Z,12.25
2024-02-09T11:23:36.886Z,7.25
2024-02-09T11:26:08.989Z,14.50
2024-02-09T11:28:36.737Z,12.00
2024-02-09T11:31:13.166Z,13.25
2024-02-09T11:33:44.552Z,15.50
2024-02-09T11:36:11.579Z,13.75
2024-02-09T11:38:38.683Z,16.00
2024-02-09T11:41:06.410Z,14.00
2024-02-09T11:43:34.710Z,10.50
2024-02-09T11:46:04.274Z,12.00
2024-02-09T11:48:31.790Z,13.00
2024-02-09T11:51:02.227Z,13.50
2024-02-09T11:53:30.714Z,12.75
2024-02-09T11:55:57.907Z,16.00
2024-02-09T11:58:26.989Z,17.00
2024-02-09T12:00:54.153Z,22.00
2024-02-09T12:03:21.253Z,22.50
2024-02-09T12:05:52.092Z,21.50
2024-02-09T12:08:20.630Z,16.00
2024-02-09T12:10:48.362Z,16.75
2024-02-09T12:13:15.495Z,20.25
2024-02-09T12:15:42.494Z,24.50
2024-02-09T12:18:10.404Z,26.50
2024-02-09T12:20:37.623Z,23.75
2024-02-09T12:23:05.702Z,18.75
2024-02-09T12:25:39.344Z,19.75
2024-02-09T12:28:11.554Z,18.00
2024-02-09T12:30:40.941Z,20.00
2024-02-09T12:33:09.739Z,18.25
2024-02-09T12:35:36.873Z,21.00
2024-02-09T12:38:05.276Z,21.50
2024-02-09T12:40:33.340Z,22.00
2024-02-09T12:43:02.598Z,19.00
2024-02-09T12:45:32.550Z,19.50
2024-02-09T12:47:59.896Z,21.25
2024-02-09T12:50:29.180Z,21.00
2024-02-09T12:52:56.991Z,21.50
2024-02-09T12:55:26.913Z,19.75
2024-02-09T12:57:56.491Z,19.25
2024-02-09T13:00:25.070Z,21.25
2024-02-09T13:02:53.827Z,21.25
2024-02-09T13:05:21.369Z,23.75
2024-02-09T13:07:49.994Z,22.00
2024-02-09T13:10:17.545Z,22.25
2024-02-09T13:12:45.693Z,23.25
2024-02-09T13:15:13.223Z,24.00
2024-02-09T13:17:40.953Z,25.00
2024-02-09T13:20:10.542Z,24.25
2024-02-09T13:22:41.157Z,25.75
2024-02-09T13:25:15.293Z,34.25
2024-02-09T13:27:43.426Z,28.25
2024-02-09T13:30:12.296Z,32.00
2024-02-09T13:32:40.036Z,31.00
2024-02-09T13:35:12.516Z,27.50
2024-02-09T13:37:46.152Z,25.00
2024-02-09T13:40:18.021Z,24.50
2024-02-09T13:42:51.175Z,31.00
2024-02-09T13:45:20.314Z,28.00
2024-02-09T13:47:48.938Z,27.75
2024-02-09T13:50:16.674Z,22.75
2024-02-09T13:52:47.455Z,28.00
2024-02-09T13:55:15.098Z,25.00
2024-02-09T13:57:45.844Z,26.75
2024-02-09T14:00:14.618Z,27.50
2024-02-09T14:02:42.040Z,25.25
2024-02-09T14:05:10.389Z,25.00
2024-02-09T14:07:40.077Z,26.25
2024-02-09T14:10:08.982Z,24.50
2024-02-09T14:12:36.466Z,35.75
2024-02-09T14:15:04.300Z,31.00
2024-02-09T14:17:35.077Z,28.00
2024-02-09T14:20:06.596Z,34.75
2024-02-09T14:22:33.936Z,26.25
2024-02-09T14:25:01.727Z,32.75
2024-02-09T14:27:30.437Z,36.00
2024-02-09T14:29:59.561Z,28.75
2024-02-09T14:32:26.852Z,26.50
2024-02-09T14:34:54.222Z,6.00
2024-02-09T14:37:22.780Z,30.25
2024-02-09T14:39:50.054Z,30.00
2024-02-09T14:42:17.142Z,33.25
2024-02-09T14:44:49.355Z,33.00
2024-02-09T14:47:18.000Z,40.50
2024-02-09T14:49:50.098Z,38.00
2024-02-09T14:52:19.356Z,35.00
2024-02-09T14:54:47.577Z,37.00
2024-02-09T14:57:15.419Z,34.25
2024-02-09T14:59:43.204Z,34.25
2024-02-09T15:02:14.611Z,35.75
2024-02-09T15:04:43.924Z,33.75
2024-02-09T15:07:12.473Z,37.00
2024-02-09T15:09:41.259Z,37.50
2024-02-09T15:12:08.277Z,37.25
2024-02-09T15:14:37.098Z,35.00
2024-02-09T15:17:07.284Z,36.25
2024-02-09T15:19:54.158Z,39.00
2024-02-09T15:22:21.323Z,35.75
2024-02-09T15:24:48.379Z,38.25
2024-02-09T15:27:16.193Z,29.75
2024-02-09T15:29:43.331Z,32.50
2024-02-09T15:32:14.453Z,37.00
2024-02-09T15:34:45.677Z,32.75
2024-02-09T15:37:13.841Z,26.00
2024-02-09T15:39:41.511Z,26.00
2024-02-09T15:42:09.978Z,26.25
2024-02-09T15:44:38.299Z,25.00
2024-02-09T15:47:05.406Z,24.25
2024-02-09T15:49:34.198Z,27.25
2024-02-09T15:52:02.498Z,25.00
2024-02-09T15:54:31.673Z,25.75
2024-02-09T15:56:59.256Z,27.25
2024-02-09T15:59:26.330Z,25.50
2024-02-09T16:01:53.805Z,27.50
2024-02-09T16:04:22.065Z,24.50
2024-02-09T16:06:50.373Z,28.25
2024-02-09T16:09:19.278Z,31.00
2024-02-09T16:11:49.427Z,27.25
2024-02-09T16:14:16.445Z,26.25
2024-02-09T16:16:45.122Z,26.75
2024-02-09T16:19:12.408Z,27.50
2024-02-09T16:21:42.200Z,27.00
2024-02-09T16:24:11.136Z,29.00
2024-02-09T16:26:40.124Z,27.50
2024-02-09T16:29:10.197Z,27.25
2024-02-09T16:31:39.592Z,28.00
2024-02-09T16:34:07.276Z,25.50
2024-02-09T16:36:34.748Z,26.50
2024-02-09T16:39:01.711Z,29.25
2024-02-09T16:41:28.718Z,27.00
2024-02-09T16:43:55.718Z,26.50
2024-02-09T16:46:26.503Z,28.25
2024-02-09T16:48:54.079Z,31.00
2024-02-09T16:51:21.098Z,27.50
2024-02-09T16:53:47.999Z,6.00
2024-02-09T16:56:15.321Z,29.50
2024-02-09T16:58:42.613Z,30.75
2024-02-09T17:01:09.987Z,29.50
2024-02-09T17:03:37.425Z,30.25
2024-02-09T17:06:06.018Z,29.00
2024-02-09T17:08:33.086Z,29.25
2024-02-09T17:11:00.523Z,26.25
2024-02-09T17:13:27.957Z,29.00
2024-02-09T17:15:55.014Z,29.50
2024-02-09T17:18:22.042Z,29.50
2024-02-09T17:20:49.263Z,30.75
2024-02-09T17:23:16.568Z,27.00
2024-02-09T17:25:43.553Z,26.50
2024-02-09T17:28:11.840Z,29.00
2024-02-09T17:30:39.199Z,22.00
2024-02-09T17:33:06.613Z,25.50
2024-02-09T17:35:33.896Z,25.25
2024-02-09T17:38:01.157Z,26.50
2024-02-09T17:40:28.350Z,22.50
2024-02-09T17:42:57.484Z,27.25
2024-02-09T17:45:24.577Z,24.50
2024-02-09T17:47:54.852Z,24.25
2024-02-09T17:50:22.928Z,22.75
2024-02-09T17:52:53.940Z,27.00
2024-02-09T17:55:21.690Z,27.75
2024-02-09T17:57:51.128Z,30.75
2024-02-09T18:00:20.044Z,23.75
2024-02-09T18:02:47.323Z,32.75
2024-02-09T18:05:14.543Z,36.25
2024-02-09T18:07:41.817Z,31.25
2024-02-09T18:10:09.361Z,37.00
2024-02-09T18:12:36.606Z,32.25
2024-02-09T18:15:03.779Z,30.00
2024-02-09T18:17:31.064Z,26.75
2024-02-09T18:19:58.145Z,29.00
2024-02-09T18:22:25.708Z,26.25
2024-02-09T18:24:53.243Z,26.00
2024-02-09T18:27:20.327Z,27.00
2024-02-09T18:29:47.403Z,27.75
2024-02-09T18:32:14.584Z,26.25
2024-02-09T18:34:41.852Z,26.75
2024-02-09T18:37:09.390Z,27.00
2024-02-09T18:39:36.762Z,30.00
2024-02-09T18:42:03.949Z,27.75
2024-02-09T18:44:31.218Z,29.00
2024-02-09T18:46:58.522Z,27.00
2024-02-09T18:49:30.702Z,25.00
2024-02-09T18:52:00.895Z,25.00
2024-02-09T18:54:28.222Z,26.25
2024-02-09T18:56:55.700Z,25.25
2024-02-09T18:59:22.794Z,26.50
2024-02-09T19:01:49.831Z,25.75
2024-02-09T19:04:19.773Z,26.00
2024-02-09T19:06:47.125Z,25.00
2024-02-09T19:09:14.652Z,20.25
2024-02-09T19:11:43.845Z,22.75
2024-02-09T19:14:12.166Z,16.50
2024-02-09T19:16:40.187Z,26.00
2024-02-09T19:19:10.347Z,24.75
2024-02-09T19:21:37.586Z,22.25
2024-02-09T19:24:04.913Z,23.00
2024-02-09T19:26:34.876Z,19.00
2024-02-09T19:29:02.449Z,23.25
2024-02-09T19:31:30.765Z,17.25
2024-02-09T19:33:58.372Z,20.25
2024-02-09T19:36:25.490Z,15.50
2024-02-09T19:38:52.724Z,23.75
2024-02-09T19:41:23.160Z,23.75
2024-02-09T19:43:51.987Z,23.00
2024-02-09T19:46:23.374Z,25.00
2024-02-09T19:48:53.015Z,23.00
2024-02-09T19:51:22.063Z,24.75
2024-02-09T19:53:49.035Z,24.75
2024-02-09T19:56:16.087Z,26.50
2024-02-09T19:58:43.116Z,24.25
2024-02-09T20:01:12.372Z,26.00
2024-02-09T20:03:39.860Z,25.00
2024-02-09T20:06:07.437Z,25.00
2024-02-09T20:08:34.598Z,26.25
2024-02-09T20:11:02.746Z,26.25
2024-02-09T20:13:29.839Z,27.00
2024-02-09T20:16:04.370Z,25.00
2024-02-09T20:18:32.970Z,27.75
2024-02-09T20:21:00.157Z,27.00
2024-02-09T20:23:28.159Z,26.25
2024-02-09T20:25:55.586Z,26.50
2024-02-09T20:28:22.892Z,30.00
2024-02-09T20:30:49.871Z,31.50
2024-02-09T20:33:20.500Z,30.25
2024-02-09T20:35:52.690Z,29.00
2024-02-09T20:38:20.013Z,27.50
2024-02-09T20:40:47.188Z,30.75
2024-02-09T20:43:14.559Z,29.50
2024-02-09T20:45:41.781Z,30.25
2024-02-09T20:48:09.443Z,31.25
2024-02-09T20:50:39.352Z,31.00
2024-02-09T20:53:07.911Z,32.00
2024-02-09T20:55:39.062Z,33.75
2024-02-09T20:58:09.026Z,29.75
2024-02-09T21:00:40.269Z,30.50
2024-02-09T21:03:09.669Z,33.00
2024-02-09T21:05:39.487Z,32.50
2024-02-09T21:08:07.845Z,31.25
2024-02-09T21:10:37.014Z,31.75
2024-02-09T21:13:04.616Z,30.50
2024-02-09T21:15:32.551Z,33.00
2024-02-09T21:18:00.575Z,31.75
2024-02-09T21:20:28.982Z,33.00
2024-02-09T21:22:57.233Z,32.50
2024-02-09T21:25:25.403Z,30.00
2024-02-09T21:27:53.783Z,32.00
2024-02-09T21:30:25.677Z,33.25
2024-02-09T21:32:58.677Z,35.00
2024-02-09T21:35:32.344Z,33.00
2024-02-09T21:38:00.957Z,35.50
2024-02-09T21:40:32.305Z,33.00
2024-02-09T21:43:02.252Z,35.25
2024-02-09T21:45:30.044Z,34.75
2024-02-09T21:47:57.177Z,28.50
2024-02-09T21:50:25.287Z,31.25
2024-02-09T21:52:53.143Z,33.25
2024-02-09T21:55:21.210Z,32.50
2024-02-09T21:57:48.882Z,27.50
2024-02-09T22:00:16.410Z,32.00
2024-02-09T22:02:44.699Z,32.00
2024-02-09T22:05:13.001Z,29.50
2024-02-09T22:07:40.513Z,31.50
2024-02-09T22:10:07.779Z,28.75
2024-02-09T22:12:36.202Z,28.00
2024-02-09T22:15:04.395Z,28.00
2024-02-09T22:17:36.130Z,28.25
2024-02-09T22:20:07.267Z,30.75
2024-02-09T22:22:35.004Z,33.00
2024-02-09T22:25:03.171Z,31.50
2024-02-09T22:27:33.565Z,31.00
2024-02-09T22:30:07.832Z,30.75
2024-02-09T22:32:41.029Z,32.25
2024-02-09T22:35:13.033Z,29.25
2024-02-09T22:37:42.133Z,33.50
2024-02-09T22:40:15.743Z,34.75
2024-02-09T22:42:44.461Z,31.25
2024-02-09T22:45:13.345Z,30.75
2024-02-09T22:47:42.409Z,31.75
2024-02-09T22:50:12.864Z,30.00
2024-02-09T22:52:40.836Z,26.00
2024-02-09T22:55:08.509Z,27.00
2024-02-09T22:57:35.680Z,24.75
2024-02-09T23:00:25.180Z,26.25
2024-02-09T23:02:52.190Z,23.75
2024-02-09T23:05:19.402Z,25.50
2024-02-09T23:07:46.857Z,24.00
2024-02-09T23:10:15.801Z,24.75
2024-02-09T23:12:43.573Z,24.50
2024-02-09T23:15:21.939Z,23.00
2024-02-09T23:17:51.890Z,24.00
2024-02-09T23:20:22.447Z,23.00
2024-02-09T23:22:52.220Z,23.75
2024-02-09T23:25:20.924Z,19.75
2024-02-09T23:27:49.161Z,19.50
2024-02-09T23:30:16.155Z,23.25
2024-02-09T23:32:44.125Z,23.00
2024-02-09T23:35:13.619Z,19.50
2024-02-09T23:37:42.458Z,23.00
2024-02-09T23:40:11.194Z,23.25
2024-02-09T23:42:39.655Z,22.50
2024-02-09T23:45:07.161Z,19.50
2024-02-09T23:47:35.221Z,24.25
2024-02-09T23:50:06.045Z,24.00
2024-02-09T23:52:33.297Z,24.00
2024-02-09T23:55:00.316Z,24.50
2024-02-09T23:57:28.864Z,25.00
2024-02-09T23:59:55.962Z,24.75
